Aviation Digital Data Service (ADDS)

Output produced by METARs form (0956 UTC 28 September 2021)
found at http://www.aviationweather.gov/metar/data/
 
VTSS 280930Z 03008KT 350V060 9999 FEW020 32/24 Q1005 NOSIG
VTSS 280900Z 03009KT 360V060 9999 FEW020 32/24 Q1005 NOSIG
VTSS 280830Z 04007KT 9999 FEW020 SCT100 32/24 Q1005 NOSIG
VTSS 280800Z 02007KT 9999 FEW020 SCT100 32/24 Q1005 NOSIG
VTSS 280730Z 36007KT 330V050 9999 FEW020 SCT100 33/24 Q1006 NOSIG
VTSS 280700Z 36008KT 300V090 9999 FEW020 SCT100 33/24 Q1006 NOSIG
VTSS 280630Z 03008KT 350V060 9999 FEW020 SCT100 33/24 Q1007 NOSIG
VTSS 280600Z 36008KT 310V060 9999 FEW020 SCT100 33/25 Q1008 NOSIG
VTSS 280530Z 35008KT 310V040 9999 FEW020 SCT100 33/24 Q1008 NOSIG
VTSS 280500Z 35006KT 280V070 9999 FEW020 SCT100 33/24 Q1008 NOSIG
VTSS 280430Z 35006KT 270V080 9999 FEW020 32/24 Q1009 NOSIG
VTSS 280400Z 32006KT 270V080 9999 FEW020 32/25 Q1009 NOSIG
VTSS 280330Z 01006KT 280V070 9999 FEW020 31/25 Q1010 NOSIG
VTSS 280300Z 34004KT 270V080 9999 FEW020 30/25 Q1010 NOSIG
VTSS 280230Z VRB02KT 9999 FEW020 30/26 Q1010 NOSIG
VTSS 280200Z 00000KT 9999 FEW020 29/28 Q1010 NOSIG
VTSS 280130Z VRB02KT 9000 FEW020 27/26 Q1010 NOSIG
VTSS 280100Z 23002KT 8000 FEW005 26/25 Q1010 NOSIG
VTSS 280030Z 25003KT 7000 FEW004 25/25 Q1010 NOSIG
VTSS 280000Z 00000KT 6000 2500E FEW020 24/24 Q1009 NOSIG
VTSS 272330Z 00000KT 4000 BR FEW002 SCT100 24/24 Q1009 NOSIG
VTSS 272300Z 15003KT 2000 BR BKN002 BKN100 24/24 Q1009 NOSIG
VTSS 272230Z 00000KT 5000 BR BKN002 BKN100 24/24 Q1009 NOSIG
VTSS 272200Z 11002KT 7000 SCT002 BKN100 24/24 Q1008 NOSIG
VTSS 272130Z 00000KT 8000 SCT002 SCT028 BKN100 24/24 Q1008 NOSIG
VTSS 272100Z 00000KT 8000 FEW002 SCT028 BKN100 24/24 Q1008 NOSIG
VTSS 272030Z 18002KT 9000 FEW002 SCT028 BKN100 24/24 Q1008 NOSIG
VTSS 272000Z 00000KT 9000 -RA FEW020 SCT028 BKN100 24/24 Q1008 NOSIG
VTSS 271930Z 00000KT 8000 FEW002 BKN100 24/24 Q1008 NOSIG
VTSS 271900Z 00000KT 6000 FEW002 BKN100 24/24 Q1009 NOSIG
VTSS 271830Z 00000KT 8000 3000W SCT002 BKN100 24/24 Q1009 NOSIG
VTSS 271800Z 00000KT 8000 FEW002 SCT100 24/24 Q1009 NOSIG
VTSS 271730Z 14002KT 8000 FEW002 SCT100 24/24 Q1010 NOSIG
VTSS 271700Z 00000KT 9999 FEW020 SCT100 24/24 Q1010 NOSIG
VTSS 271630Z 17003KT 9999 FEW020 BKN100 24/24 Q1010 NOSIG
VTSS 271600Z 18003KT 090V260 9999 SCT020 BKN100 24/24 Q1010 NOSIG
VTSS 271530Z 00000KT 9999 FEW007 SCT100 24/24 Q1010 NOSIG
VTSS 271500Z 00000KT 9999 FEW008 SCT100 24/24 Q1010 NOSIG
VTSS 271430Z 00000KT 9999 FEW020 SCT100 24/24 Q1010 NOSIG
VTSS 271400Z VRB02KT 9999 FEW020 SCT100 25/24 Q1009 NOSIG
VTSS 271330Z 34002KT 9999 SCT020 BKN100 25/25 Q1009 NOSIG
VTSS 271300Z 00000KT 9999 SCT020 BKN100 25/25 Q1008 NOSIG
VTSS 271230Z 09002KT 9999 FEW020 BKN100 25/24 Q1008 NOSIG
VTSS 271200Z 11003KT 9999 FEW020 BKN100 25/24 Q1007 NOSIG
VTSS 271130Z 00000KT 9999 -RA FEW020 SCT028 BKN100 25/24 Q1007 NOSIG
VTSS 271100Z 17003KT 120V220 9999 -RA FEW018CB SCT028 BKN100 25/24 Q1006 NOSIG
VTSS 271030Z 16003KT 130V210 8000 -RA FEW018CB SCT020 BKN100 25/24 Q1006 RERA NOSIG
VTSS 271000Z 17003KT 080V250 9999 -RA FEW018CB SCT028 BKN100 25/24 Q1006 NOSIG
TAF VTSS 280500Z 2806/2906 03006KT 9999 SCT020 
     TEMPO 2806/2812 VRB15G25KT 3000 TSRA FEW016CB SCT018 BKN100 
     BECMG 2820/2822 2000 BR BKN005 
     BECMG 2901/2903 9999 NSW FEW020